Nearby METAR Reports

 Weather conditions at key Metar weather stations is recorded hourly. Metar weather stations are the stations set up at regional or major airports and often considered the official stations of record for a local area.

KSEA - Seattle/Tacoma Airport
Updated: 08/18/2018 10:53am
Clear
Clear
 Wind from W
Wind: W 6 mph , 9 km/h
Temperature: 68°F , 20°C
Dew Point: 54°F , 12°C
Humidity: 60%
Barometer: 30.22 inHg , 1023.4 hPa
Clouds: Clear
Visibility: 10 miles , 16 km
2018/08/18 17:53 KSEA 181753Z 28005KT 10SM CLR 20/12 A3022 RMK AO2 SLP239 T02000122 10200 20128 58010
KTIW - Tacoma Narrows Bridge
Updated: 08/18/2018 10:53am
Clear
Clear
 Wind from S
Wind: S 5 mph , 7 km/h
Temperature: 63°F , 17°C
Dew Point: 54°F , 12°C
Humidity: 73%
Barometer: 30.23 inHg , 1023.7 hPa
Clouds: Clear
Visibility: 10 miles , 16 km
2018/08/18 17:53 KTIW 181753Z 18004KT 10SM CLR 17/12 A3023 RMK AO2 SLP235 T01670117 10178 20106 58010
 
KBLI - Bellingham
Updated: 08/18/2018 10:53am
Mist, Clear
Mist, Clear
 Wind from calm
Wind: Calm
Temperature: 64°F , 18°C
Dew Point: 54°F , 12°C
Humidity: 68%
Barometer: 30.22 inHg , 1023.4 hPa
Summary: Mist
Clouds: Clear
Visibility: 10 miles , 16 km
2018/08/18 17:53 KBLI 181753Z 00000KT 10SM BR CLR 18/12 A3022 RMK AO2 SLP240 T01780117 10178 20100 58005 $
KUIL - Quillayute-La Push
Updated: 08/18/2018 10:53am
Overcast
Overcast
 Wind from varies
Wind: varies 6 mph , 9 km/h
Temperature: 55°F , 13°C
Dew Point: 52°F , 11°C
Humidity: 88%
Barometer: 30.23 inHg , 1023.7 hPa
Clouds: Overcast
Visibility: 10 miles , 16 km
Cloud details: Overcast 400 ft
2018/08/18 17:53 KUIL 181753Z AUTO VRB05KT 10SM OVC004 13/11 A3023 RMK AO2 SLP238 T01330111 10144 20100 55001 $
 
KYKM - Yakima
Updated: 08/18/2018 10:53am
Clear
Clear
 Wind from W
Wind: W 5 mph , 7 km/h
Temperature: 79°F , 26°C
Dew Point: 48°F , 9°C
Humidity: 34%
Barometer: 30.14 inHg , 1020.7 hPa
Clouds: Clear
Visibility: 9 miles , 14 km
2018/08/18 17:53 KYKM 181753Z 26004KT 9SM CLR 26/09 A3014 RMK AO2 SLP199 T02560094 10256 20106 58006
KGEG - Spokane
Updated: 08/18/2018 10:53am
Mostly cloudy
Mostly cloudy
 Wind from SSW
Wind: SSW 10 mph , 17 km/h
Temperature: 73°F , 23°C
Dew Point: 45°F , 7°C
Humidity: 36%
Barometer: 30.19 inHg , 1022.4 hPa
Clouds: Mostly cloudy
Visibility: 10 miles , 16 km
Cloud details: Mostly cloudy 14000 ft
2018/08/18 17:53 KGEG 181753Z 21009KT 10SM BKN140 23/07 A3019 RMK AO2 SLP209 FU BKN140 T02280072 10228 20150 50001
 
KPDX - Portland
Updated: 08/18/2018 10:53am
Clear
Clear
 Wind from W
Wind: W 10 mph , 17 km/h
Temperature: 66°F , 19°C
Dew Point: 50°F , 10°C
Humidity: 56%
Barometer: 30.21 inHg , 1023 hPa
Clouds: Clear
Visibility: 10 miles , 16 km
2018/08/18 17:53 KPDX 181753Z 28009KT 10SM CLR 19/10 A3021 RMK AO2 SLP227 T01890100 10189 20139 58010